sensor_id;sensor_type;location;lat;lon;timestamp;P1;P4;P2;P0;N10;N4;N25;N1;N05;TS
85470;SPS30;75873;54.332;18.626;2024-03-02T00:00:32;34.9;;33.9;31.2;;;;;;
85470;SPS30;75873;54.332;18.626;2024-03-02T00:05:32;34.8;;33.9;31.2;;;;;;
85470;SPS30;75873;54.332;18.626;2024-03-02T00:10:38;35.7;;34.8;32.1;;;;;;
85470;SPS30;75873;54.332;18.626;2024-03-02T00:15:39;35.2;;34.5;32.0;;;;;;
85470;SPS30;75873;54.332;18.626;2024-03-02T00:20:32;37.6;;36.6;33.6;;;;;;
85470;SPS30;75873;54.332;18.626;2024-03-02T00:25:37;36.9;;35.8;32.8;;;;;;
85470;SPS30;75873;54.332;18.626;2024-03-02T00:30:39;40.1;;38.7;35.3;;;;;;
85470;SPS30;75873;54.332;18.626;2024-03-02T00:35:32;38.5;;37.4;34.3;;;;;;
85470;SPS30;75873;54.332;18.626;2024-03-02T00:40:32;39.5;;37.9;34.3;;;;;;
85470;SPS30;75873;54.332;18.626;2024-03-02T00:45:32;37.8;;36.8;33.8;;;;;;
85470;SPS30;75873;54.332;18.626;2024-03-02T00:50:32;37.0;;36.2;33.4;;;;;;
85470;SPS30;75873;54.332;18.626;2024-03-02T00:55:32;37.7;;37.1;34.5;;;;;;
85470;SPS30;75873;54.332;18.626;2024-03-02T01:00:32;38.6;;37.7;34.8;;;;;;
85470;SPS30;75873;54.332;18.626;2024-03-02T01:05:32;37.2;;36.2;33.2;;;;;;
85470;SPS30;75873;54.332;18.626;2024-03-02T01:10:32;36.9;;35.9;33.1;;;;;;
85470;SPS30;75873;54.332;18.626;2024-03-02T01:15:32;36.1;;35.7;33.4;;;;;;
85470;SPS30;75873;54.332;18.626;2024-03-02T01:20:32;37.2;;36.4;33.7;;;;;;
85470;SPS30;75873;54.332;18.626;2024-03-02T01:25:32;36.5;;35.8;33.1;;;;;;
85470;SPS30;75873;54.332;18.626;2024-03-02T01:30:32;37.9;;36.5;33.1;;;;;;
85470;SPS30;75873;54.332;18.626;2024-03-02T01:35:32;38.0;;37.2;34.3;;;;;;
85470;SPS30;75873;54.332;18.626;2024-03-02T01:40:32;38.3;;37.0;33.7;;;;;;
85470;SPS30;75873;54.332;18.626;2024-03-02T01:45:32;37.0;;35.8;32.7;;;;;;
85470;SPS30;75873;54.332;18.626;2024-03-02T01:50:33;34.8;;34.1;31.6;;;;;;
85470;SPS30;75873;54.332;18.626;2024-03-02T01:55:32;34.0;;33.3;30.8;;;;;;
85470;SPS30;75873;54.332;18.626;2024-03-02T02:00:32;33.2;;32.6;30.2;;;;;;
85470;SPS30;75873;54.332;18.626;2024-03-02T02:05:32;33.5;;32.6;30.0;;;;;;
85470;SPS30;75873;54.332;18.626;2024-03-02T02:10:32;33.5;;32.8;30.3;;;;;;
85470;SPS30;75873;54.332;18.626;2024-03-02T02:15:32;33.5;;32.6;29.9;;;;;;
85470;SPS30;75873;54.332;18.626;2024-03-02T02:20:32;33.8;;32.8;30.0;;;;;;
85470;SPS30;75873;54.332;18.626;2024-03-02T02:25:32;32.7;;32.0;29.5;;;;;;
85470;SPS30;75873;54.332;18.626;2024-03-02T02:30:32;33.1;;32.1;29.3;;;;;;
85470;SPS30;75873;54.332;18.626;2024-03-02T02:35:32;33.1;;32.2;29.6;;;;;;
85470;SPS30;75873;54.332;18.626;2024-03-02T02:40:32;33.8;;33.1;30.5;;;;;;
85470;SPS30;75873;54.332;18.626;2024-03-02T02:45:32;33.6;;32.7;30.1;;;;;;
85470;SPS30;75873;54.332;18.626;2024-03-02T02:50:32;33.5;;32.7;30.1;;;;;;
85470;SPS30;75873;54.332;18.626;2024-03-02T02:55:32;34.8;;33.7;30.9;;;;;;
85470;SPS30;75873;54.332;18.626;2024-03-02T03:00:32;42.5;;40.8;36.9;;;;;;
85470;SPS30;75873;54.332;18.626;2024-03-02T03:05:32;40.2;;38.9;35.6;;;;;;
85470;SPS30;75873;54.332;18.626;2024-03-02T03:10:32;34.9;;34.3;31.8;;;;;;
85470;SPS30;75873;54.332;18.626;2024-03-02T03:15:32;34.5;;33.7;31.0;;;;;;
85470;SPS30;75873;54.332;18.626;2024-03-02T03:20:32;33.4;;32.7;30.3;;;;;;
85470;SPS30;75873;54.332;18.626;2024-03-02T03:25:32;35.1;;34.2;31.4;;;;;;
85470;SPS30;75873;54.332;18.626;2024-03-02T03:30:32;34.3;;33.6;31.2;;;;;;
85470;SPS30;75873;54.332;18.626;2024-03-02T03:35:32;35.0;;33.9;31.1;;;;;;
85470;SPS30;75873;54.332;18.626;2024-03-02T03:40:32;34.5;;33.8;31.3;;;;;;
85470;SPS30;75873;54.332;18.626;2024-03-02T03:45:32;35.7;;34.8;32.1;;;;;;
85470;SPS30;75873;54.332;18.626;2024-03-02T03:50:32;35.5;;34.2;31.1;;;;;;
85470;SPS30;75873;54.332;18.626;2024-03-02T03:55:32;37.0;;35.5;32.1;;;;;;
85470;SPS30;75873;54.332;18.626;2024-03-02T04:00:32;35.9;;34.6;31.5;;;;;;
85470;SPS30;75873;54.332;18.626;2024-03-02T04:05:32;35.6;;34.4;31.4;;;;;;
85470;SPS30;75873;54.332;18.626;2024-03-02T04:10:32;35.8;;34.6;31.6;;;;;;
85470;SPS30;75873;54.332;18.626;2024-03-02T04:15:32;35.8;;34.7;31.7;;;;;;
85470;SPS30;75873;54.332;18.626;2024-03-02T04:20:32;35.4;;34.3;31.3;;;;;;
85470;SPS30;75873;54.332;18.626;2024-03-02T04:25:32;36.2;;34.9;31.8;;;;;;
85470;SPS30;75873;54.332;18.626;2024-03-02T04:30:32;35.7;;34.8;32.1;;;;;;
85470;SPS30;75873;54.332;18.626;2024-03-02T04:35:32;36.3;;35.1;32.1;;;;;;
85470;SPS30;75873;54.332;18.626;2024-03-02T04:40:32;35.6;;34.6;31.7;;;;;;
85470;SPS30;75873;54.332;18.626;2024-03-02T04:45:32;38.6;;36.6;32.6;;;;;;
85470;SPS30;75873;54.332;18.626;2024-03-02T04:50:32;35.4;;34.3;31.4;;;;;;
85470;SPS30;75873;54.332;18.626;2024-03-02T04:55:32;37.4;;36.1;32.8;;;;;;
85470;SPS30;75873;54.332;18.626;2024-03-02T05:00:32;38.1;;36.6;33.2;;;;;;
85470;SPS30;75873;54.332;18.626;2024-03-02T05:05:32;37.6;;36.1;32.6;;;;;;
85470;SPS30;75873;54.332;18.626;2024-03-02T05:10:32;37.2;;35.3;31.5;;;;;;
85470;SPS30;75873;54.332;18.626;2024-03-02T05:15:32;36.4;;35.2;32.2;;;;;;
85470;SPS30;75873;54.332;18.626;2024-03-02T05:20:32;36.1;;34.6;31.3;;;;;;
85470;SPS30;75873;54.332;18.626;2024-03-02T05:25:32;36.9;;35.3;31.8;;;;;;
85470;SPS30;75873;54.332;18.626;2024-03-02T05:30:32;37.2;;35.8;32.5;;;;;;
85470;SPS30;75873;54.332;18.626;2024-03-02T05:35:32;38.6;;36.9;33.2;;;;;;
85470;SPS30;75873;54.332;18.626;2024-03-02T05:40:32;37.5;;35.8;32.2;;;;;;
85470;SPS30;75873;54.332;18.626;2024-03-02T05:45:32;37.9;;36.6;33.5;;;;;;
85470;SPS30;75873;54.332;18.626;2024-03-02T05:50:32;39.0;;37.0;33.0;;;;;;
85470;SPS30;75873;54.332;18.626;2024-03-02T05:55:32;36.6;;35.4;32.3;;;;;;
85470;SPS30;75873;54.332;18.626;2024-03-02T06:00:32;37.2;;35.6;32.1;;;;;;
85470;SPS30;75873;54.332;18.626;2024-03-02T06:05:32;38.2;;36.3;32.4;;;;;;
85470;SPS30;75873;54.332;18.626;2024-03-02T06:10:32;39.2;;37.5;33.9;;;;;;
85470;SPS30;75873;54.332;18.626;2024-03-02T06:15:32;36.6;;35.3;32.1;;;;;;
85470;SPS30;75873;54.332;18.626;2024-03-02T06:20:32;38.1;;36.7;33.3;;;;;;
85470;SPS30;75873;54.332;18.626;2024-03-02T06:25:32;39.3;;37.5;33.8;;;;;;
85470;SPS30;75873;54.332;18.626;2024-03-02T06:30:32;38.8;;37.3;33.8;;;;;;
85470;SPS30;75873;54.332;18.626;2024-03-02T06:35:32;42.2;;40.5;36.6;;;;;;
85470;SPS30;75873;54.332;18.626;2024-03-02T06:40:32;39.7;;37.8;34.0;;;;;;
85470;SPS30;75873;54.332;18.626;2024-03-02T06:45:32;40.2;;38.3;34.5;;;;;;
85470;SPS30;75873;54.332;18.626;2024-03-02T06:50:32;39.4;;37.9;34.4;;;;;;
85470;SPS30;75873;54.332;18.626;2024-03-02T06:55:32;41.5;;39.7;35.9;;;;;;
85470;SPS30;75873;54.332;18.626;2024-03-02T07:00:32;44.1;;42.4;38.5;;;;;;
85470;SPS30;75873;54.332;18.626;2024-03-02T07:05:32;38.2;;36.9;33.6;;;;;;
85470;SPS30;75873;54.332;18.626;2024-03-02T07:10:32;39.7;;37.9;34.0;;;;;;
85470;SPS30;75873;54.332;18.626;2024-03-02T07:15:32;39.8;;38.0;34.1;;;;;;
85470;SPS30;75873;54.332;18.626;2024-03-02T07:20:32;39.0;;37.4;33.8;;;;;;
85470;SPS30;75873;54.332;18.626;2024-03-02T07:25:32;41.9;;39.7;35.4;;;;;;
85470;SPS30;75873;54.332;18.626;2024-03-02T07:30:32;41.5;;39.4;35.3;;;;;;
85470;SPS30;75873;54.332;18.626;2024-03-02T07:35:32;40.3;;38.4;34.5;;;;;;
85470;SPS30;75873;54.332;18.626;2024-03-02T07:40:32;41.0;;39.3;35.5;;;;;;
85470;SPS30;75873;54.332;18.626;2024-03-02T07:45:32;39.8;;37.9;34.0;;;;;;
85470;SPS30;75873;54.332;18.626;2024-03-02T07:50:32;39.8;;38.3;34.7;;;;;;
85470;SPS30;75873;54.332;18.626;2024-03-02T07:55:32;40.0;;38.3;34.6;;;;;;
85470;SPS30;75873;54.332;18.626;2024-03-02T08:00:32;40.3;;38.8;35.3;;;;;;
85470;SPS30;75873;54.332;18.626;2024-03-02T08:05:32;40.0;;38.5;34.8;;;;;;
85470;SPS30;75873;54.332;18.626;2024-03-02T08:10:32;39.5;;38.0;34.5;;;;;;
85470;SPS30;75873;54.332;18.626;2024-03-02T08:15:32;41.9;;39.8;35.7;;;;;;
85470;SPS30;75873;54.332;18.626;2024-03-02T08:20:32;41.8;;40.0;36.1;;;;;;
85470;SPS30;75873;54.332;18.626;2024-03-02T08:25:32;40.2;;38.5;34.7;;;;;;
85470;SPS30;75873;54.332;18.626;2024-03-02T08:30:32;40.3;;38.7;35.1;;;;;;
85470;SPS30;75873;54.332;18.626;2024-03-02T08:35:32;39.0;;37.4;33.8;;;;;;
85470;SPS30;75873;54.332;18.626;2024-03-02T08:40:32;39.3;;37.5;33.8;;;;;;
85470;SPS30;75873;54.332;18.626;2024-03-02T08:45:32;40.7;;38.7;34.7;;;;;;
85470;SPS30;75873;54.332;18.626;2024-03-02T08:50:32;39.3;;37.2;33.1;;;;;;
85470;SPS30;75873;54.332;18.626;2024-03-02T08:55:32;40.0;;37.7;33.4;;;;;;
85470;SPS30;75873;54.332;18.626;2024-03-02T09:00:32;39.3;;37.4;33.5;;;;;;
85470;SPS30;75873;54.332;18.626;2024-03-02T09:05:32;40.0;;38.1;34.2;;;;;;
85470;SPS30;75873;54.332;18.626;2024-03-02T09:10:32;39.0;;37.5;34.0;;;;;;
85470;SPS30;75873;54.332;18.626;2024-03-02T09:15:32;39.3;;37.8;34.3;;;;;;
85470;SPS30;75873;54.332;18.626;2024-03-02T09:20:32;38.5;;37.1;33.8;;;;;;
85470;SPS30;75873;54.332;18.626;2024-03-02T09:25:32;38.0;;36.8;33.6;;;;;;
85470;SPS30;75873;54.332;18.626;2024-03-02T09:30:32;38.8;;37.1;33.5;;;;;;
85470;SPS30;75873;54.332;18.626;2024-03-02T09:35:32;39.2;;37.6;34.0;;;;;;
85470;SPS30;75873;54.332;18.626;2024-03-02T09:40:32;39.8;;37.9;34.0;;;;;;
85470;SPS30;75873;54.332;18.626;2024-03-02T09:45:32;38.7;;37.3;33.9;;;;;;
85470;SPS30;75873;54.332;18.626;2024-03-02T09:50:32;39.8;;38.3;34.7;;;;;;
85470;SPS30;75873;54.332;18.626;2024-03-02T09:55:32;40.4;;38.5;34.6;;;;;;
85470;SPS30;75873;54.332;18.626;2024-03-02T10:00:32;39.0;;37.5;34.1;;;;;;
85470;SPS30;75873;54.332;18.626;2024-03-02T10:05:32;39.0;;37.1;33.3;;;;;;
85470;SPS30;75873;54.332;18.626;2024-03-02T10:10:40;38.5;;37.0;33.6;;;;;;
85470;SPS30;75873;54.332;18.626;2024-03-02T10:15:32;37.4;;36.1;32.8;;;;;;
85470;SPS30;75873;54.332;18.626;2024-03-02T10:20:32;37.5;;36.2;33.0;;;;;;
85470;SPS30;75873;54.332;18.626;2024-03-02T10:25:33;36.1;;35.3;32.6;;;;;;
85470;SPS30;75873;54.332;18.626;2024-03-02T10:30:32;37.9;;36.8;33.6;;;;;;
85470;SPS30;75873;54.332;18.626;2024-03-02T10:35:32;37.6;;36.3;33.2;;;;;;
85470;SPS30;75873;54.332;18.626;2024-03-02T10:40:32;41.4;;40.0;36.5;;;;;;
85470;SPS30;75873;54.332;18.626;2024-03-02T10:45:32;37.0;;36.0;33.0;;;;;;
85470;SPS30;75873;54.332;18.626;2024-03-02T10:50:32;37.1;;35.7;32.5;;;;;;
85470;SPS30;75873;54.332;18.626;2024-03-02T10:55:32;37.3;;36.3;33.3;;;;;;
85470;SPS30;75873;54.332;18.626;2024-03-02T11:00:33;36.9;;35.6;32.4;;;;;;
85470;SPS30;75873;54.332;18.626;2024-03-02T11:05:33;36.5;;35.5;32.6;;;;;;
85470;SPS30;75873;54.332;18.626;2024-03-02T11:10:35;35.5;;34.6;31.8;;;;;;
85470;SPS30;75873;54.332;18.626;2024-03-02T11:15:32;37.4;;36.4;33.5;;;;;;
85470;SPS30;75873;54.332;18.626;2024-03-02T11:20:32;34.5;;33.9;31.4;;;;;;
85470;SPS30;75873;54.332;18.626;2024-03-02T11:25:32;36.6;;35.4;32.3;;;;;;
85470;SPS30;75873;54.332;18.626;2024-03-02T11:30:51;36.9;;35.7;32.5;;;;;;
85470;SPS30;75873;54.332;18.626;2024-03-02T11:35:32;35.0;;34.3;31.7;;;;;;
85470;SPS30;75873;54.332;18.626;2024-03-02T11:40:32;37.5;;36.3;33.3;;;;;;
85470;SPS30;75873;54.332;18.626;2024-03-02T11:45:32;36.8;;35.9;33.0;;;;;;
85470;SPS30;75873;54.332;18.626;2024-03-02T11:50:33;35.8;;35.1;32.5;;;;;;
85470;SPS30;75873;54.332;18.626;2024-03-02T11:55:32;36.7;;35.7;32.7;;;;;;
85470;SPS30;75873;54.332;18.626;2024-03-02T12:00:32;36.5;;35.6;32.8;;;;;;
85470;SPS30;75873;54.332;18.626;2024-03-02T12:05:32;38.7;;37.4;34.2;;;;;;
85470;SPS30;75873;54.332;18.626;2024-03-02T12:10:33;37.8;;36.4;33.2;;;;;;
85470;SPS30;75873;54.332;18.626;2024-03-02T12:15:32;37.8;;36.7;33.5;;;;;;
85470;SPS30;75873;54.332;18.626;2024-03-02T12:20:32;38.7;;37.2;33.7;;;;;;
85470;SPS30;75873;54.332;18.626;2024-03-02T12:25:32;39.8;;38.2;34.6;;;;;;
85470;SPS30;75873;54.332;18.626;2024-03-02T12:30:34;37.9;;36.6;33.5;;;;;;
85470;SPS30;75873;54.332;18.626;2024-03-02T12:35:32;39.0;;37.8;34.6;;;;;;
85470;SPS30;75873;54.332;18.626;2024-03-02T12:40:32;38.2;;37.0;33.8;;;;;;
85470;SPS30;75873;54.332;18.626;2024-03-02T12:45:32;36.9;;35.7;32.5;;;;;;
85470;SPS30;75873;54.332;18.626;2024-03-02T12:50:32;37.1;;36.2;33.4;;;;;;
85470;SPS30;75873;54.332;18.626;2024-03-02T12:55:32;38.1;;36.7;33.3;;;;;;
85470;SPS30;75873;54.332;18.626;2024-03-02T13:00:32;37.5;;36.2;33.0;;;;;;
85470;SPS30;75873;54.332;18.626;2024-03-02T13:05:32;36.3;;35.5;32.8;;;;;;
85470;SPS30;75873;54.332;18.626;2024-03-02T13:10:33;36.8;;35.9;33.1;;;;;;
85470;SPS30;75873;54.332;18.626;2024-03-02T13:15:32;36.7;;35.8;32.9;;;;;;
85470;SPS30;75873;54.332;18.626;2024-03-02T13:20:32;38.2;;36.6;33.0;;;;;;
85470;SPS30;75873;54.332;18.626;2024-03-02T13:25:32;37.7;;36.8;33.9;;;;;;
85470;SPS30;75873;54.332;18.626;2024-03-02T13:30:32;40.3;;38.9;35.4;;;;;;
85470;SPS30;75873;54.332;18.626;2024-03-02T13:35:32;37.4;;36.3;33.2;;;;;;
85470;SPS30;75873;54.332;18.626;2024-03-02T13:40:32;36.2;;34.8;31.6;;;;;;
85470;SPS30;75873;54.332;18.626;2024-03-02T13:45:32;34.5;;33.7;31.1;;;;;;
85470;SPS30;75873;54.332;18.626;2024-03-02T13:50:32;35.8;;34.6;31.5;;;;;;
85470;SPS30;75873;54.332;18.626;2024-03-02T13:55:32;34.5;;33.7;31.1;;;;;;
85470;SPS30;75873;54.332;18.626;2024-03-02T14:00:32;36.0;;35.3;32.8;;;;;;
85470;SPS30;75873;54.332;18.626;2024-03-02T14:05:32;36.0;;35.3;32.7;;;;;;
85470;SPS30;75873;54.332;18.626;2024-03-02T14:10:32;38.3;;37.1;33.9;;;;;;
85470;SPS30;75873;54.332;18.626;2024-03-02T14:15:32;36.8;;35.9;33.0;;;;;;
85470;SPS30;75873;54.332;18.626;2024-03-02T14:20:32;35.3;;34.5;31.8;;;;;;
85470;SPS30;75873;54.332;18.626;2024-03-02T14:25:32;34.7;;33.9;31.2;;;;;;
85470;SPS30;75873;54.332;18.626;2024-03-02T14:30:32;34.5;;33.8;31.4;;;;;;
85470;SPS30;75873;54.332;18.626;2024-03-02T14:35:32;35.7;;34.9;32.2;;;;;;
85470;SPS30;75873;54.332;18.626;2024-03-02T14:40:32;36.0;;35.4;32.9;;;;;;
85470;SPS30;75873;54.332;18.626;2024-03-02T14:45:32;34.1;;33.6;31.2;;;;;;
85470;SPS30;75873;54.332;18.626;2024-03-02T14:50:32;34.1;;33.6;31.3;;;;;;
85470;SPS30;75873;54.332;18.626;2024-03-02T14:55:32;34.4;;33.8;31.3;;;;;;
85470;SPS30;75873;54.332;18.626;2024-03-02T15:00:32;37.2;;36.2;33.3;;;;;;
85470;SPS30;75873;54.332;18.626;2024-03-02T15:05:32;37.7;;36.8;33.9;;;;;;
85470;SPS30;75873;54.332;18.626;2024-03-02T15:10:32;36.0;;34.9;32.0;;;;;;
85470;SPS30;75873;54.332;18.626;2024-03-02T15:15:33;35.6;;35.1;32.8;;;;;;
85470;SPS30;75873;54.332;18.626;2024-03-02T15:20:32;37.9;;36.8;33.8;;;;;;
85470;SPS30;75873;54.332;18.626;2024-03-02T15:25:32;34.8;;34.4;32.1;;;;;;
85470;SPS30;75873;54.332;18.626;2024-03-02T15:30:32;36.6;;35.5;32.5;;;;;;
85470;SPS30;75873;54.332;18.626;2024-03-02T15:35:32;37.4;;36.8;34.3;;;;;;
85470;SPS30;75873;54.332;18.626;2024-03-02T15:40:32;34.5;;33.7;31.1;;;;;;
85470;SPS30;75873;54.332;18.626;2024-03-02T15:45:37;34.2;;33.7;31.3;;;;;;
85470;SPS30;75873;54.332;18.626;2024-03-02T15:50:32;40.4;;39.8;37.0;;;;;;
85470;SPS30;75873;54.332;18.626;2024-03-02T15:55:32;41.3;;40.6;37.7;;;;;;
85470;SPS30;75873;54.332;18.626;2024-03-02T16:00:32;37.9;;37.4;34.9;;;;;;
85470;SPS30;75873;54.332;18.626;2024-03-02T16:05:32;36.7;;36.5;34.3;;;;;;
85470;SPS30;75873;54.332;18.626;2024-03-02T16:10:32;40.7;;39.6;36.5;;;;;;
85470;SPS30;75873;54.332;18.626;2024-03-02T16:15:32;37.8;;37.2;34.5;;;;;;
85470;SPS30;75873;54.332;18.626;2024-03-02T16:20:32;36.9;;36.4;33.9;;;;;;
85470;SPS30;75873;54.332;18.626;2024-03-02T16:25:32;37.2;;36.6;34.0;;;;;;
85470;SPS30;75873;54.332;18.626;2024-03-02T16:30:32;37.8;;36.9;34.1;;;;;;
85470;SPS30;75873;54.332;18.626;2024-03-02T16:35:32;36.2;;35.6;33.2;;;;;;
85470;SPS30;75873;54.332;18.626;2024-03-02T16:40:32;35.3;;34.9;32.7;;;;;;
85470;SPS30;75873;54.332;18.626;2024-03-02T16:45:32;39.2;;38.6;35.9;;;;;;
85470;SPS30;75873;54.332;18.626;2024-03-02T16:50:33;38.3;;37.9;35.4;;;;;;
85470;SPS30;75873;54.332;18.626;2024-03-02T16:55:32;37.4;;36.9;34.4;;;;;;
85470;SPS30;75873;54.332;18.626;2024-03-02T17:00:33;37.0;;36.5;33.9;;;;;;
85470;SPS30;75873;54.332;18.626;2024-03-02T17:05:33;36.8;;36.2;33.7;;;;;;
85470;SPS30;75873;54.332;18.626;2024-03-02T17:10:32;38.1;;37.6;35.0;;;;;;
85470;SPS30;75873;54.332;18.626;2024-03-02T17:15:32;36.6;;36.2;33.8;;;;;;
85470;SPS30;75873;54.332;18.626;2024-03-02T17:20:32;37.9;;37.3;34.7;;;;;;
85470;SPS30;75873;54.332;18.626;2024-03-02T17:25:32;41.4;;40.8;37.9;;;;;;
85470;SPS30;75873;54.332;18.626;2024-03-02T17:30:32;41.8;;41.5;38.9;;;;;;
85470;SPS30;75873;54.332;18.626;2024-03-02T17:35:32;44.3;;43.9;41.0;;;;;;
85470;SPS30;75873;54.332;18.626;2024-03-02T17:40:32;58.1;;56.8;52.5;;;;;;
85470;SPS30;75873;54.332;18.626;2024-03-02T17:45:32;59.4;;58.0;53.6;;;;;;
85470;SPS30;75873;54.332;18.626;2024-03-02T17:50:32;55.9;;54.4;50.0;;;;;;
85470;SPS30;75873;54.332;18.626;2024-03-02T17:55:32;53.6;;52.3;48.2;;;;;;
85470;SPS30;75873;54.332;18.626;2024-03-02T18:00:32;49.0;;48.5;45.3;;;;;;
85470;SPS30;75873;54.332;18.626;2024-03-02T18:05:32;50.4;;49.5;45.9;;;;;;
85470;SPS30;75873;54.332;18.626;2024-03-02T18:10:32;52.8;;52.0;48.5;;;;;;
85470;SPS30;75873;54.332;18.626;2024-03-02T18:15:32;61.4;;61.0;57.2;;;;;;
85470;SPS30;75873;54.332;18.626;2024-03-02T18:20:32;75.4;;74.1;68.9;;;;;;
85470;SPS30;75873;54.332;18.626;2024-03-02T18:25:33;92.9;;89.9;82.1;;;;;;
85470;SPS30;75873;54.332;18.626;2024-03-02T18:30:32;110.1;;105.2;94.7;;;;;;
85470;SPS30;75873;54.332;18.626;2024-03-02T18:35:32;86.4;;84.1;77.3;;;;;;
85470;SPS30;75873;54.332;18.626;2024-03-02T18:40:32;69.4;;66.5;60.0;;;;;;
85470;SPS30;75873;54.332;18.626;2024-03-02T18:45:32;64.5;;62.6;57.4;;;;;;
85470;SPS30;75873;54.332;18.626;2024-03-02T18:50:32;67.3;;65.2;59.7;;;;;;
85470;SPS30;75873;54.332;18.626;2024-03-02T18:55:32;56.7;;55.3;50.8;;;;;;
85470;SPS30;75873;54.332;18.626;2024-03-02T19:00:33;54.0;;52.6;48.3;;;;;;
85470;SPS30;75873;54.332;18.626;2024-03-02T19:05:32;48.0;;46.8;43.1;;;;;;
85470;SPS30;75873;54.332;18.626;2024-03-02T19:10:32;46.6;;45.6;42.2;;;;;;
85470;SPS30;75873;54.332;18.626;2024-03-02T19:15:33;45.8;;45.0;41.7;;;;;;
85470;SPS30;75873;54.332;18.626;2024-03-02T19:20:33;43.1;;42.3;39.1;;;;;;
85470;SPS30;75873;54.332;18.626;2024-03-02T19:25:33;43.3;;42.6;39.6;;;;;;
85470;SPS30;75873;54.332;18.626;2024-03-02T19:30:32;44.7;;43.9;40.9;;;;;;
85470;SPS30;75873;54.332;18.626;2024-03-02T19:35:32;50.6;;49.2;45.3;;;;;;
85470;SPS30;75873;54.332;18.626;2024-03-02T19:40:32;50.6;;49.4;45.5;;;;;;
85470;SPS30;75873;54.332;18.626;2024-03-02T19:45:32;56.4;;55.0;50.6;;;;;;
85470;SPS30;75873;54.332;18.626;2024-03-02T19:50:32;57.4;;55.9;51.3;;;;;;
85470;SPS30;75873;54.332;18.626;2024-03-02T19:55:32;51.4;;50.7;47.3;;;;;;
85470;SPS30;75873;54.332;18.626;2024-03-02T20:00:32;49.2;;48.2;44.7;;;;;;
85470;SPS30;75873;54.332;18.626;2024-03-02T20:05:32;48.6;;48.1;45.0;;;;;;
85470;SPS30;75873;54.332;18.626;2024-03-02T20:10:32;54.2;;52.8;48.6;;;;;;
85470;SPS30;75873;54.332;18.626;2024-03-02T20:15:33;53.6;;52.1;47.7;;;;;;
85470;SPS30;75873;54.332;18.626;2024-03-02T20:20:32;56.3;;54.9;50.5;;;;;;
85470;SPS30;75873;54.332;18.626;2024-03-02T20:25:33;61.9;;59.8;54.5;;;;;;
85470;SPS30;75873;54.332;18.626;2024-03-02T20:30:33;63.4;;61.4;56.1;;;;;;
85470;SPS30;75873;54.332;18.626;2024-03-02T20:35:33;65.4;;63.0;57.2;;;;;;
85470;SPS30;75873;54.332;18.626;2024-03-02T20:40:33;65.9;;63.4;57.5;;;;;;
85470;SPS30;75873;54.332;18.626;2024-03-02T20:45:33;60.0;;57.3;51.5;;;;;;
85470;SPS30;75873;54.332;18.626;2024-03-02T20:50:33;57.1;;55.2;50.2;;;;;;
85470;SPS30;75873;54.332;18.626;2024-03-02T20:55:33;53.7;;52.3;48.0;;;;;;
85470;SPS30;75873;54.332;18.626;2024-03-02T21:00:33;51.9;;50.7;46.8;;;;;;
85470;SPS30;75873;54.332;18.626;2024-03-02T21:05:33;54.8;;53.5;49.3;;;;;;
85470;SPS30;75873;54.332;18.626;2024-03-02T21:10:33;52.9;;51.3;46.9;;;;;;
85470;SPS30;75873;54.332;18.626;2024-03-02T21:15:33;53.7;;52.1;47.6;;;;;;
85470;SPS30;75873;54.332;18.626;2024-03-02T21:20:33;58.5;;56.9;52.3;;;;;;
85470;SPS30;75873;54.332;18.626;2024-03-02T21:25:33;62.5;;60.9;56.0;;;;;;
85470;SPS30;75873;54.332;18.626;2024-03-02T21:30:33;56.0;;54.8;50.6;;;;;;
85470;SPS30;75873;54.332;18.626;2024-03-02T21:35:33;53.0;;51.7;47.6;;;;;;
85470;SPS30;75873;54.332;18.626;2024-03-02T21:40:33;52.4;;51.0;46.9;;;;;;
85470;SPS30;75873;54.332;18.626;2024-03-02T21:45:34;51.0;;49.1;44.6;;;;;;
85470;SPS30;75873;54.332;18.626;2024-03-02T21:50:34;47.0;;45.7;42.0;;;;;;
85470;SPS30;75873;54.332;18.626;2024-03-02T21:55:33;45.2;;44.3;41.0;;;;;;
85470;SPS30;75873;54.332;18.626;2024-03-02T22:00:32;45.4;;44.2;40.5;;;;;;
85470;SPS30;75873;54.332;18.626;2024-03-02T22:05:32;44.0;;43.2;40.2;;;;;;
85470;SPS30;75873;54.332;18.626;2024-03-02T22:10:32;43.5;;42.9;39.9;;;;;;
85470;SPS30;75873;54.332;18.626;2024-03-02T22:15:32;43.2;;42.5;39.5;;;;;;
85470;SPS30;75873;54.332;18.626;2024-03-02T22:20:32;42.2;;41.9;39.2;;;;;;
85470;SPS30;75873;54.332;18.626;2024-03-02T22:25:32;43.6;;42.8;39.6;;;;;;
85470;SPS30;75873;54.332;18.626;2024-03-02T22:30:32;44.8;;43.7;40.2;;;;;;
85470;SPS30;75873;54.332;18.626;2024-03-02T22:35:32;45.1;;44.4;41.3;;;;;;
85470;SPS30;75873;54.332;18.626;2024-03-02T22:40:32;44.5;;43.8;40.7;;;;;;
85470;SPS30;75873;54.332;18.626;2024-03-02T22:45:32;45.2;;44.3;41.0;;;;;;
85470;SPS30;75873;54.332;18.626;2024-03-02T22:50:32;45.0;;44.4;41.4;;;;;;
85470;SPS30;75873;54.332;18.626;2024-03-02T22:55:32;44.5;;43.4;40.1;;;;;;
85470;SPS30;75873;54.332;18.626;2024-03-02T23:00:32;43.6;;43.3;40.6;;;;;;
85470;SPS30;75873;54.332;18.626;2024-03-02T23:05:32;44.3;;43.4;40.2;;;;;;
85470;SPS30;75873;54.332;18.626;2024-03-02T23:10:32;40.2;;39.6;36.9;;;;;;
85470;SPS30;75873;54.332;18.626;2024-03-02T23:15:32;40.3;;39.9;37.3;;;;;;
85470;SPS30;75873;54.332;18.626;2024-03-02T23:20:32;37.5;;37.4;35.2;;;;;;
85470;SPS30;75873;54.332;18.626;2024-03-02T23:25:33;37.3;;37.0;34.7;;;;;;
85470;SPS30;75873;54.332;18.626;2024-03-02T23:30:32;37.3;;37.0;34.7;;;;;;
85470;SPS30;75873;54.332;18.626;2024-03-02T23:35:32;38.4;;37.7;35.0;;;;;;
85470;SPS30;75873;54.332;18.626;2024-03-02T23:40:32;36.7;;36.4;34.2;;;;;;
85470;SPS30;75873;54.332;18.626;2024-03-02T23:45:32;37.7;;37.1;34.5;;;;;;
85470;SPS30;75873;54.332;18.626;2024-03-02T23:50:32;37.5;;37.1;34.7;;;;;;
85470;SPS30;75873;54.332;18.626;2024-03-02T23:55:32;38.0;;37.6;35.3;;;;;;
